createdAt,value
2018-03-19T00:00:28.754Z,4.03
2018-03-19T00:03:01.234Z,3.90
2018-03-19T00:05:33.705Z,4.00
2018-03-19T00:08:06.260Z,4.07
2018-03-19T00:10:38.887Z,3.33
2018-03-19T00:13:11.435Z,4.10
2018-03-19T00:15:43.955Z,3.37
2018-03-19T00:18:16.505Z,3.87
2018-03-19T00:20:48.981Z,3.50
2018-03-19T00:23:21.473Z,3.87
2018-03-19T00:25:53.946Z,4.17
2018-03-19T00:28:26.448Z,3.27
2018-03-19T00:30:58.917Z,4.00
2018-03-19T00:33:31.410Z,3.23
2018-03-19T00:36:03.877Z,4.20
2018-03-19T00:38:36.838Z,4.03
2018-03-19T00:41:09.703Z,3.90
2018-03-19T00:43:42.269Z,4.50
2018-03-19T00:46:14.888Z,3.63
2018-03-19T00:48:47.426Z,4.60
2018-03-19T00:51:19.885Z,4.27
2018-03-19T00:53:52.386Z,4.17
2018-03-19T00:56:24.854Z,4.33
2018-03-19T00:58:57.382Z,4.53
2018-03-19T01:01:29.854Z,4.57
2018-03-19T01:04:02.359Z,4.10
2018-03-19T01:06:34.882Z,3.97
2018-03-19T01:09:07.647Z,3.97
2018-03-19T01:11:40.408Z,4.47
2018-03-19T01:14:12.964Z,4.50
2018-03-19T01:16:45.473Z,4.50
2018-03-19T01:19:17.993Z,4.40
2018-03-19T01:21:50.467Z,4.07
2018-03-19T01:24:22.961Z,4.00
2018-03-19T01:26:55.430Z,4.40
2018-03-19T01:29:27.927Z,3.73
2018-03-19T01:32:00.402Z,3.73
2018-03-19T01:34:32.915Z,4.00
2018-03-19T01:37:05.462Z,4.67
2018-03-19T01:39:38.197Z,4.60
2018-03-19T01:42:10.706Z,4.60
2018-03-19T01:44:43.228Z,4.60
2018-03-19T01:47:15.764Z,4.10
2018-03-19T01:49:48.282Z,4.47
2018-03-19T01:55:24.655Z,4.70
2018-03-19T01:57:57.153Z,4.10
2018-03-19T02:00:29.668Z,4.50
2018-03-19T02:03:02.170Z,3.43
2018-03-19T02:05:34.692Z,4.00
2018-03-19T02:08:07.229Z,4.27
2018-03-19T02:10:39.826Z,4.10
2018-03-19T02:13:12.364Z,4.20
2018-03-19T02:15:45.449Z,5.13
2018-03-19T02:18:17.974Z,4.83
2018-03-19T02:20:50.467Z,4.13
2018-03-19T02:23:22.983Z,3.90
2018-03-19T02:25:55.491Z,4.60
2018-03-19T02:28:28.000Z,4.23
2018-03-19T02:31:00.504Z,4.70
2018-03-19T02:33:33.030Z,4.20
2018-03-19T02:36:05.522Z,4.37
2018-03-19T02:38:38.042Z,4.00
2018-03-19T02:41:10.848Z,4.70
2018-03-19T02:43:43.403Z,4.50
2018-03-19T02:46:15.941Z,4.30
2018-03-19T02:48:48.692Z,4.63
2018-03-19T02:51:21.283Z,3.93
2018-03-19T02:53:53.807Z,4.43
2018-03-19T02:56:26.300Z,4.77
2018-03-19T02:58:58.821Z,4.70
2018-03-19T03:01:31.322Z,4.30
2018-03-19T03:04:03.838Z,4.47
2018-03-19T03:06:36.338Z,3.93
2018-03-19T03:09:08.872Z,4.30
2018-03-19T03:11:41.387Z,3.93
2018-03-19T03:14:13.934Z,4.13
2018-03-19T03:16:46.475Z,4.40
2018-03-19T03:19:19.073Z,4.43
2018-03-19T03:21:51.600Z,4.43
2018-03-19T03:24:24.122Z,3.90
2018-03-19T03:26:56.626Z,4.03
2018-03-19T03:29:29.151Z,3.97
2018-03-19T03:32:01.647Z,4.27
2018-03-19T03:34:34.171Z,3.80
2018-03-19T03:37:06.670Z,4.10
2018-03-19T03:39:39.240Z,4.13
2018-03-19T03:42:11.857Z,4.50
2018-03-19T03:44:44.408Z,4.70
2018-03-19T03:47:17.035Z,3.90
2018-03-19T03:49:49.731Z,4.23
2018-03-19T03:52:22.226Z,4.33
2018-03-19T03:54:54.746Z,3.83
2018-03-19T03:57:27.241Z,4.40
2018-03-19T03:59:59.758Z,4.20
2018-03-19T04:02:32.252Z,4.33
2018-03-19T04:05:04.769Z,4.53
2018-03-19T04:07:37.264Z,4.83
2018-03-19T04:10:09.825Z,3.93
2018-03-19T04:12:42.547Z,4.20
2018-03-19T04:15:15.124Z,4.10
2018-03-19T04:17:47.629Z,4.20
2018-03-19T04:20:20.311Z,4.87
2018-03-19T04:22:52.816Z,4.50
2018-03-19T04:25:25.335Z,4.10
2018-03-19T04:27:57.834Z,4.20
2018-03-19T04:30:30.362Z,4.20
2018-03-19T04:33:02.862Z,4.57
2018-03-19T04:35:35.399Z,4.40
2018-03-19T04:38:07.897Z,4.40
2018-03-19T04:40:40.485Z,4.30
2018-03-19T04:43:13.040Z,4.57
2018-03-19T04:45:45.849Z,4.27
2018-03-19T04:48:18.434Z,3.60
2018-03-19T04:50:51.122Z,4.47
2018-03-19T04:53:23.621Z,4.20
2018-03-19T04:55:56.140Z,4.63
2018-03-19T04:58:28.650Z,4.00
2018-03-19T05:01:01.171Z,4.67
2018-03-19T05:03:33.674Z,4.27
2018-03-19T05:06:06.194Z,4.53
2018-03-19T05:08:38.704Z,4.50
2018-03-19T05:11:11.271Z,4.40
2018-03-19T05:13:43.862Z,4.40
2018-03-19T05:16:16.421Z,4.10
2018-03-19T05:18:48.995Z,4.03
2018-03-19T05:21:21.536Z,4.43
2018-03-19T05:23:54.029Z,4.27
2018-03-19T05:26:26.550Z,4.30
2018-03-19T05:28:59.046Z,4.70
2018-03-19T05:31:31.558Z,5.07
2018-03-19T05:34:04.054Z,4.80
2018-03-19T05:36:36.576Z,5.03
2018-03-19T05:39:09.060Z,4.93
2018-03-19T05:41:41.569Z,4.20
2018-03-19T05:44:14.108Z,4.50
2018-03-19T05:46:46.614Z,5.43
2018-03-19T05:49:19.142Z,4.90
2018-03-19T05:51:51.640Z,6.40
2018-03-19T05:54:24.161Z,5.67
2018-03-19T05:56:56.660Z,4.83
2018-03-19T05:59:29.174Z,5.40
2018-03-19T06:02:01.674Z,4.97
2018-03-19T06:04:34.191Z,5.40
2018-03-19T06:07:06.684Z,4.77
2018-03-19T06:09:39.222Z,5.43
2018-03-19T06:12:11.735Z,5.20
2018-03-19T06:14:44.260Z,4.93
2018-03-19T06:17:16.770Z,5.20
2018-03-19T06:19:49.289Z,5.07
2018-03-19T06:22:21.878Z,5.20
2018-03-19T06:24:54.343Z,4.87
2018-03-19T06:27:26.839Z,4.90
2018-03-19T06:29:59.358Z,5.27
2018-03-19T06:32:31.847Z,4.13
2018-03-19T06:35:04.360Z,5.10
2018-03-19T06:37:36.863Z,6.20
2018-03-19T06:42:48.153Z,5.40
2018-03-19T06:45:20.680Z,5.40
2018-03-19T06:47:53.182Z,5.50
2018-03-19T06:50:25.695Z,5.53
2018-03-19T06:52:58.187Z,5.10
2018-03-19T06:55:30.704Z,5.97
2018-03-19T06:58:03.215Z,5.43
2018-03-19T07:00:35.744Z,5.00
2018-03-19T07:03:08.246Z,5.27
2018-03-19T07:05:40.857Z,4.57
2018-03-19T07:08:13.346Z,5.30
2018-03-19T07:10:45.864Z,3.97
2018-03-19T07:13:18.447Z,5.60
2018-03-19T07:15:51.096Z,6.03
2018-03-19T07:18:23.603Z,6.33
2018-03-19T07:20:56.123Z,5.40
2018-03-19T07:23:28.618Z,5.20
2018-03-19T07:26:01.140Z,5.67
2018-03-19T07:28:33.637Z,5.70
2018-03-19T07:31:06.159Z,5.97
2018-03-19T07:33:38.673Z,5.93
2018-03-19T07:36:11.219Z,5.50
2018-03-19T07:38:43.731Z,5.13
2018-03-19T07:41:16.274Z,5.90
2018-03-19T07:43:48.779Z,6.33
2018-03-19T07:46:21.334Z,5.23
2018-03-19T07:48:53.861Z,5.20
2018-03-19T07:51:26.392Z,5.57
2018-03-19T07:53:58.913Z,5.07
2018-03-19T07:56:31.548Z,6.60
2018-03-19T07:59:04.114Z,5.90
2018-03-19T08:01:36.639Z,6.13
2018-03-19T08:04:11.232Z,5.50
2018-03-19T08:06:43.812Z,5.87
2018-03-19T08:09:16.329Z,5.40
2018-03-19T08:11:48.884Z,5.80
2018-03-19T08:14:21.404Z,5.37
2018-03-19T08:16:53.934Z,5.83
2018-03-19T08:19:26.454Z,5.50
2018-03-19T08:21:58.988Z,5.63
2018-03-19T08:24:31.520Z,6.10
2018-03-19T08:27:07.519Z,6.10
2018-03-19T08:29:40.058Z,6.23
2018-03-19T08:32:12.627Z,5.57
2018-03-19T08:34:45.155Z,5.93
2018-03-19T08:37:17.719Z,5.83
2018-03-19T08:39:50.275Z,5.50
2018-03-19T08:42:22.797Z,5.13
2018-03-19T08:44:55.331Z,5.00
2018-03-19T08:47:27.935Z,5.70
2018-03-19T08:50:00.515Z,5.27
2018-03-19T08:52:33.054Z,5.37
2018-03-19T08:55:05.573Z,5.83
2018-03-19T08:57:38.124Z,5.20
2018-03-19T09:00:10.753Z,5.90
2018-03-19T09:02:43.315Z,4.73
2018-03-19T09:05:15.898Z,5.00
2018-03-19T09:07:48.463Z,4.30
2018-03-19T09:10:20.989Z,5.63
2018-03-19T09:12:53.575Z,4.83
2018-03-19T09:15:26.239Z,5.33
2018-03-19T09:17:58.842Z,5.93
2018-03-19T09:20:32.206Z,5.13
2018-03-19T09:23:04.745Z,5.17
2018-03-19T09:25:37.354Z,5.57
2018-03-19T09:28:09.892Z,5.17
2018-03-19T09:30:42.498Z,5.20
2018-03-19T09:33:15.028Z,5.80
2018-03-19T09:35:47.601Z,5.13
2018-03-19T09:38:20.248Z,4.83
2018-03-19T09:40:52.811Z,5.10
2018-03-19T09:43:25.509Z,5.13
2018-03-19T09:45:59.156Z,5.60
2018-03-19T09:48:31.767Z,4.77
2018-03-19T09:51:04.339Z,4.93
2018-03-19T09:53:36.929Z,5.80
2018-03-19T09:56:09.523Z,4.80
2018-03-19T09:58:42.109Z,5.20
2018-03-19T10:01:14.693Z,5.97
2018-03-19T10:03:47.243Z,5.33
2018-03-19T10:06:19.880Z,5.20
2018-03-19T10:08:52.500Z,5.50
2018-03-19T10:11:25.082Z,4.60
2018-03-19T10:13:57.619Z,4.80
2018-03-19T10:19:09.880Z,4.97
2018-03-19T10:21:42.510Z,4.00
2018-03-19T10:24:15.060Z,4.30
2018-03-19T10:26:47.605Z,4.40
2018-03-19T10:29:20.176Z,4.63
2018-03-19T10:31:52.760Z,4.27
2018-03-19T10:34:25.314Z,5.20
2018-03-19T10:36:57.907Z,4.50
2018-03-19T10:39:30.517Z,5.00
2018-03-19T10:42:03.065Z,4.60
2018-03-19T10:44:35.579Z,5.90
2018-03-19T10:47:08.164Z,4.77
2018-03-19T10:49:40.783Z,4.50
2018-03-19T10:52:13.408Z,4.13
2018-03-19T10:54:45.977Z,4.10
2018-03-19T10:57:18.552Z,4.60
2018-03-19T10:59:51.125Z,4.30
2018-03-19T11:02:28.583Z,4.53
2018-03-19T11:05:06.650Z,4.40
2018-03-19T11:07:50.058Z,5.00
2018-03-19T11:10:22.620Z,3.70
2018-03-19T11:12:55.260Z,4.37
2018-03-19T11:15:27.856Z,3.90
2018-03-19T11:18:00.423Z,4.13
2018-03-19T11:20:33.012Z,4.07
2018-03-19T11:23:05.613Z,3.97
2018-03-19T11:25:38.231Z,4.20
2018-03-19T11:28:10.841Z,4.03
2018-03-19T11:30:43.377Z,3.83
2018-03-19T11:33:15.979Z,4.13
2018-03-19T11:35:48.540Z,3.70
2018-03-19T11:38:21.080Z,3.87
2018-03-19T11:40:53.642Z,3.90
2018-03-19T11:43:26.226Z,4.20
2018-03-19T11:45:58.749Z,4.30
2018-03-19T11:48:31.301Z,5.17
2018-03-19T11:51:03.890Z,3.80
2018-03-19T11:53:36.441Z,3.60
2018-03-19T11:56:09.083Z,3.50
2018-03-19T11:58:41.685Z,3.80
2018-03-19T12:01:14.292Z,4.10
2018-03-19T12:03:46.817Z,3.77
2018-03-19T12:06:19.363Z,3.80
2018-03-19T12:08:51.952Z,4.10
2018-03-19T12:11:24.501Z,3.90
2018-03-19T12:13:57.732Z,3.67
2018-03-19T12:16:30.296Z,3.60
2018-03-19T12:19:02.812Z,3.43
2018-03-19T12:21:35.351Z,3.73
2018-03-19T12:24:07.871Z,3.73
2018-03-19T12:26:40.504Z,3.70
2018-03-19T12:29:13.043Z,4.10
2018-03-19T12:31:45.686Z,3.63
2018-03-19T12:34:18.194Z,4.13
2018-03-19T12:36:50.735Z,4.33
2018-03-19T12:39:23.276Z,3.50
2018-03-19T12:41:55.834Z,3.33
2018-03-19T12:44:28.386Z,3.90
2018-03-19T12:47:00.948Z,3.60
2018-03-19T12:49:33.438Z,4.10
2018-03-19T12:52:05.949Z,3.87
2018-03-19T12:54:38.828Z,3.17
2018-03-19T12:57:11.791Z,3.63
2018-03-19T12:59:44.307Z,3.63
2018-03-19T13:02:16.855Z,4.07
2018-03-19T13:04:49.360Z,3.63
2018-03-19T13:07:21.970Z,4.43
2018-03-19T13:09:54.477Z,3.80
2018-03-19T13:12:26.993Z,3.73
2018-03-19T13:14:59.489Z,3.50
2018-03-19T13:17:32.020Z,3.47
2018-03-19T13:20:04.524Z,4.17
2018-03-19T13:22:37.084Z,3.50
2018-03-19T13:25:10.031Z,3.57
2018-03-19T13:27:42.673Z,3.90
2018-03-19T13:30:15.201Z,3.70
2018-03-19T13:32:47.740Z,3.67
2018-03-19T13:35:20.241Z,3.57
2018-03-19T13:37:52.873Z,3.10
2018-03-19T13:40:25.403Z,3.77
2018-03-19T13:42:58.009Z,3.90
2018-03-19T13:45:30.510Z,3.60
2018-03-19T13:48:03.019Z,4.20
2018-03-19T13:50:35.512Z,3.57
2018-03-19T13:53:08.024Z,3.90
2018-03-19T13:55:41.982Z,3.63
2018-03-19T13:58:14.535Z,4.20
2018-03-19T14:00:47.039Z,3.37
2018-03-19T14:03:19.630Z,4.10
2018-03-19T14:05:52.190Z,3.60
2018-03-19T14:08:24.719Z,3.90
2018-03-19T14:10:57.229Z,3.63
2018-03-19T14:13:29.818Z,3.47
2018-03-19T14:16:02.277Z,3.43
2018-03-19T14:18:34.807Z,3.93
2018-03-19T14:21:07.311Z,3.50
2018-03-19T14:23:41.534Z,3.80
2018-03-19T14:26:14.043Z,3.50
2018-03-19T14:28:46.616Z,3.60
2018-03-19T14:31:19.167Z,3.60
2018-03-19T14:33:51.713Z,3.43
2018-03-19T14:36:24.239Z,3.37
2018-03-19T14:38:56.787Z,3.80
2018-03-19T14:41:29.314Z,3.87
2018-03-19T14:46:40.978Z,3.60
2018-03-19T14:49:13.546Z,3.80
2018-03-19T14:51:46.056Z,3.90
2018-03-19T14:54:18.620Z,3.40
2018-03-19T14:56:51.129Z,3.50
2018-03-19T14:59:23.672Z,3.40
2018-03-19T15:01:56.191Z,3.77
2018-03-19T15:04:28.732Z,3.97
2018-03-19T15:07:01.235Z,3.97
2018-03-19T15:09:33.756Z,3.57
2018-03-19T15:12:06.254Z,3.40
2018-03-19T15:14:38.884Z,3.43
2018-03-19T15:17:12.260Z,3.27
2018-03-19T15:19:45.290Z,3.70
2018-03-19T15:22:17.785Z,3.07
2018-03-19T15:24:50.303Z,3.70
2018-03-19T15:27:22.809Z,3.77
2018-03-19T15:29:55.340Z,3.60
2018-03-19T15:32:27.864Z,4.50
2018-03-19T15:35:00.357Z,3.50
2018-03-19T15:37:32.865Z,3.53
2018-03-19T15:40:11.293Z,3.30
2018-03-19T15:42:43.819Z,3.20
2018-03-19T15:45:16.342Z,3.63
2018-03-19T15:47:48.905Z,3.27
2018-03-19T15:50:21.432Z,3.50
2018-03-19T15:52:53.972Z,3.80
2018-03-19T15:55:26.494Z,3.90
2018-03-19T15:57:59.028Z,3.83
2018-03-19T16:00:31.544Z,3.67
2018-03-19T16:03:04.091Z,3.73
2018-03-19T16:05:36.596Z,3.77
2018-03-19T16:08:12.395Z,4.10
2018-03-19T16:10:44.907Z,4.10
2018-03-19T16:13:17.517Z,3.93
2018-03-19T16:15:50.012Z,4.00
2018-03-19T16:18:22.525Z,4.33
2018-03-19T16:20:55.126Z,4.27
2018-03-19T16:23:27.646Z,4.23
2018-03-19T16:26:00.186Z,4.97
2018-03-19T16:28:32.720Z,5.20
2018-03-19T16:31:05.222Z,4.90
2018-03-19T16:33:37.744Z,5.37
2018-03-19T16:36:11.447Z,5.67
2018-03-19T16:38:43.965Z,4.83
2018-03-19T16:41:16.471Z,4.57
2018-03-19T16:43:49.006Z,5.17
2018-03-19T16:46:21.546Z,5.47
2018-03-19T16:48:54.061Z,5.43
2018-03-19T16:51:26.588Z,4.87
2018-03-19T16:53:59.332Z,4.70
2018-03-19T16:56:31.887Z,4.57
2018-03-19T16:59:04.406Z,4.60
2018-03-19T17:01:36.917Z,4.00
2018-03-19T17:04:09.992Z,4.37
2018-03-19T17:06:42.508Z,3.90
2018-03-19T17:09:15.064Z,4.57
2018-03-19T17:11:47.619Z,4.40
2018-03-19T17:14:20.175Z,3.93
2018-03-19T17:16:52.706Z,3.63
2018-03-19T17:19:25.259Z,4.17
2018-03-19T17:21:57.787Z,3.90
2018-03-19T17:24:30.351Z,5.37
2018-03-19T17:27:02.897Z,4.90
2018-03-19T17:29:35.450Z,4.70
2018-03-19T17:32:08.001Z,5.07
2018-03-19T17:34:40.660Z,8.67
2018-03-19T17:37:13.216Z,6.53
2018-03-19T17:39:45.774Z,4.93
2018-03-19T17:42:18.318Z,4.97
2018-03-19T17:44:50.878Z,4.70
2018-03-19T17:47:23.415Z,4.40
2018-03-19T17:49:55.981Z,4.20
2018-03-19T17:52:28.519Z,4.33
2018-03-19T17:55:01.144Z,3.83
2018-03-19T17:57:33.679Z,3.97
2018-03-19T18:00:06.784Z,3.80
2018-03-19T18:02:39.354Z,4.17
2018-03-19T18:05:11.902Z,3.87
2018-03-19T18:07:44.454Z,4.37
2018-03-19T18:10:17.020Z,4.13
2018-03-19T18:12:49.555Z,4.07
2018-03-19T18:15:22.097Z,3.90
2018-03-19T18:17:54.606Z,4.00
2018-03-19T18:20:27.147Z,4.23
2018-03-19T18:22:59.662Z,3.87
2018-03-19T18:25:32.227Z,3.90
2018-03-19T18:28:04.754Z,3.93
2018-03-19T18:30:37.286Z,4.37
2018-03-19T18:33:10.044Z,4.10
2018-03-19T18:35:42.587Z,3.90
2018-03-19T18:38:15.112Z,4.00
2018-03-19T18:40:47.655Z,4.77
2018-03-19T18:43:20.175Z,5.03
2018-03-19T18:45:52.734Z,3.97
2018-03-19T18:48:25.280Z,4.70
2018-03-19T18:50:57.811Z,4.27
2018-03-19T18:53:30.360Z,3.83
2018-03-19T18:56:02.931Z,4.13
2018-03-19T18:58:35.426Z,3.60
2018-03-19T19:01:07.944Z,4.27
2018-03-19T19:03:40.520Z,4.50
2018-03-19T19:06:13.037Z,4.80
2018-03-19T19:08:45.582Z,5.00
2018-03-19T19:11:18.601Z,4.77
2018-03-19T19:13:51.172Z,5.07
2018-03-19T19:16:23.690Z,5.57
2018-03-19T19:18:56.232Z,5.13
2018-03-19T19:21:28.779Z,4.63
2018-03-19T19:24:01.345Z,4.80
2018-03-19T19:26:33.883Z,4.23
2018-03-19T19:29:06.376Z,4.70
2018-03-19T19:31:39.604Z,4.20
2018-03-19T19:34:12.184Z,4.63
2018-03-19T19:36:44.716Z,4.60
2018-03-19T19:39:18.120Z,5.60
2018-03-19T19:41:50.638Z,4.73
2018-03-19T19:44:23.169Z,4.40
2018-03-19T19:46:55.658Z,3.97
2018-03-19T19:49:28.213Z,3.93
2018-03-19T19:52:00.713Z,4.40
2018-03-19T19:54:33.238Z,4.10
2018-03-19T19:57:05.741Z,4.43
2018-03-19T19:59:38.277Z,4.20
2018-03-19T20:02:11.503Z,3.93
2018-03-19T20:04:44.204Z,3.53
2018-03-19T20:07:16.830Z,3.60
2018-03-19T20:09:49.520Z,3.83
2018-03-19T20:12:22.102Z,4.17
2018-03-19T20:14:54.660Z,4.00
2018-03-19T20:17:27.229Z,3.70
2018-03-19T20:20:00.475Z,4.50
2018-03-19T20:22:33.079Z,4.00
2018-03-19T20:25:05.646Z,4.40
2018-03-19T20:27:38.422Z,4.43
2018-03-19T20:30:11.462Z,4.30
2018-03-19T20:32:43.991Z,4.03
2018-03-19T20:35:17.016Z,4.33
2018-03-19T20:37:49.707Z,4.03
2018-03-19T20:40:22.510Z,4.10
2018-03-19T20:42:55.067Z,4.03
2018-03-19T20:45:27.693Z,4.40
2018-03-19T20:48:00.199Z,4.70
2018-03-19T20:50:43.316Z,4.37
2018-03-19T20:53:15.847Z,4.13
2018-03-19T20:55:48.874Z,4.37
2018-03-19T20:58:21.763Z,4.10
2018-03-19T21:00:54.827Z,4.70
2018-03-19T21:03:27.402Z,4.27
2018-03-19T21:06:00.032Z,3.93
2018-03-19T21:08:32.518Z,4.13
2018-03-19T21:11:05.312Z,4.60
2018-03-19T21:13:38.142Z,4.20
2018-03-19T21:16:13.744Z,4.20
2018-03-19T21:18:46.243Z,4.13
2018-03-19T21:21:18.768Z,4.70
2018-03-19T21:23:51.785Z,5.67
2018-03-19T21:26:24.311Z,5.23
2018-03-19T21:28:56.801Z,5.07
2018-03-19T21:31:29.311Z,5.00
2018-03-19T21:34:01.807Z,5.17
2018-03-19T21:36:34.602Z,4.50
2018-03-19T21:39:07.142Z,4.77
2018-03-19T21:41:39.741Z,4.53
2018-03-19T21:44:12.855Z,4.90
2018-03-19T21:46:45.386Z,5.07
2018-03-19T21:49:17.901Z,4.70
2018-03-19T21:51:50.435Z,4.60
2018-03-19T21:54:22.951Z,4.93
2018-03-19T21:56:55.475Z,5.07
2018-03-19T21:59:27.984Z,5.40
2018-03-19T22:02:00.545Z,5.50
2018-03-19T22:04:33.065Z,4.93
2018-03-19T22:07:05.567Z,5.03
2018-03-19T22:09:38.081Z,5.27
2018-03-19T22:12:10.996Z,5.30
2018-03-19T22:14:43.558Z,5.20
2018-03-19T22:17:16.095Z,5.33
2018-03-19T22:19:48.623Z,4.73
2018-03-19T22:22:21.149Z,4.90
2018-03-19T22:24:53.661Z,5.20
2018-03-19T22:27:26.167Z,5.27
2018-03-19T22:29:58.684Z,5.40
2018-03-19T22:32:31.196Z,5.47
2018-03-19T22:35:03.720Z,5.43
2018-03-19T22:37:36.223Z,6.07
2018-03-19T22:40:08.982Z,6.60
2018-03-19T22:42:41.550Z,7.23
2018-03-19T22:45:14.090Z,9.27
2018-03-19T22:47:46.601Z,9.07
2018-03-19T22:50:19.136Z,8.50
2018-03-19T22:52:51.667Z,7.27
2018-03-19T22:55:24.202Z,8.70
2018-03-19T22:57:56.699Z,7.87
2018-03-19T23:00:29.246Z,9.67
2018-03-19T23:03:01.754Z,9.67
2018-03-19T23:05:34.279Z,10.47
2018-03-19T23:08:06.778Z,9.23
2018-03-19T23:10:40.026Z,10.80
2018-03-19T23:13:12.538Z,10.90
2018-03-19T23:15:45.094Z,11.53
2018-03-19T23:18:17.622Z,11.83
2018-03-19T23:20:50.163Z,12.57
2018-03-19T23:23:22.705Z,11.37
2018-03-19T23:25:55.261Z,11.23
2018-03-19T23:28:27.765Z,11.10
2018-03-19T23:31:00.301Z,11.37
2018-03-19T23:33:32.804Z,10.93
2018-03-19T23:36:05.328Z,11.20
2018-03-19T23:38:37.819Z,10.20
2018-03-19T23:41:16.181Z,9.67
2018-03-19T23:43:48.706Z,10.17
2018-03-19T23:46:21.238Z,9.63
2018-03-19T23:48:53.762Z,8.90
2018-03-19T23:51:26.308Z,8.80
2018-03-19T23:53:58.838Z,9.43
2018-03-19T23:56:31.375Z,9.70
2018-03-19T23:59:03.890Z,9.07
